createdAt,value
2023-01-03T00:04:38.222Z,100993.53
2023-01-03T00:09:41.092Z,101001.78
2023-01-03T00:14:44.802Z,101008.78
2023-01-03T00:19:48.902Z,101006.25
2023-01-03T00:24:53.685Z,101013.78
2023-01-03T00:29:56.612Z,101014.19
2023-01-03T00:35:05.140Z,101025.53
2023-01-03T00:40:09.753Z,101018.50
2023-01-03T00:45:17.603Z,101022.47
2023-01-03T00:50:23.764Z,101030.00
2023-01-03T00:55:26.520Z,101040.53
2023-01-03T01:00:29.925Z,101043.53
2023-01-03T01:05:33.975Z,101052.34
2023-01-03T01:10:36.781Z,101057.47
2023-01-03T01:15:39.493Z,101069.03
2023-01-03T01:20:43.688Z,101071.34
2023-01-03T01:25:46.371Z,101084.69
2023-01-03T01:30:49.219Z,101093.88
2023-01-03T01:35:53.500Z,101100.25
2023-01-03T01:40:56.959Z,101108.84
2023-01-03T01:46:00.666Z,101114.22
2023-01-03T01:51:04.908Z,101116.38
2023-01-03T01:56:10.349Z,101110.53
2023-01-03T02:01:14.705Z,101108.41
2023-01-03T02:06:20.110Z,101111.25
2023-01-03T02:11:29.084Z,101118.53
2023-01-03T02:16:48.290Z,101119.72
2023-01-03T02:22:09.851Z,101118.06
2023-01-03T02:27:36.227Z,101122.22
2023-01-03T02:32:44.589Z,101124.34
2023-01-03T02:37:55.412Z,101130.19
2023-01-03T02:43:02.894Z,101143.53
2023-01-03T02:48:11.337Z,101145.34
2023-01-03T02:53:16.544Z,101141.97
2023-01-03T02:58:23.266Z,101156.75
2023-01-03T03:03:29.982Z,101160.06
2023-01-03T03:08:32.865Z,101156.09
2023-01-03T03:13:38.513Z,101170.28
2023-01-03T03:18:50.070Z,101169.56
2023-01-03T03:24:11.873Z,101162.97
2023-01-03T03:29:16.709Z,101167.22
2023-01-03T03:34:22.696Z,101174.00
2023-01-03T03:39:44.224Z,101164.81
2023-01-03T03:45:03.396Z,101176.38
2023-01-03T03:50:11.635Z,101172.38
2023-01-03T03:55:18.035Z,101185.81
2023-01-03T04:00:27.280Z,101192.41
2023-01-03T04:05:33.892Z,101196.66
2023-01-03T04:10:38.102Z,101198.88
2023-01-03T04:15:41.080Z,101200.56
2023-01-03T04:20:45.242Z,101209.25
2023-01-03T04:25:49.058Z,101212.66
2023-01-03T04:30:51.810Z,101214.66
2023-01-03T04:35:55.926Z,101223.88
2023-01-03T04:41:04.992Z,101229.50
2023-01-03T04:46:07.881Z,101235.28
2023-01-03T04:51:12.231Z,101237.75
2023-01-03T04:56:14.942Z,101246.53
2023-01-03T05:01:17.813Z,101246.94
2023-01-03T05:06:22.002Z,101244.91
2023-01-03T05:11:25.333Z,101255.47
2023-01-03T05:16:28.290Z,101263.00
2023-01-03T05:21:50.040Z,101258.28
2023-01-03T05:26:53.410Z,101277.78
2023-01-03T05:31:56.417Z,101275.91
2023-01-03T05:37:00.622Z,101282.38
2023-01-03T05:42:03.450Z,101279.59
2023-01-03T05:47:06.630Z,101278.50
2023-01-03T05:52:10.786Z,101285.00
2023-01-03T05:57:13.937Z,101287.38
2023-01-03T06:02:17.543Z,101299.28
2023-01-03T06:07:21.760Z,101309.94
2023-01-03T06:12:24.452Z,101311.06
2023-01-03T06:17:44.716Z,101306.00
2023-01-03T06:22:48.811Z,101310.25
2023-01-03T06:27:51.816Z,101315.75
2023-01-03T06:32:54.732Z,101319.44
2023-01-03T06:37:59.612Z,101316.06
2023-01-03T06:43:02.737Z,101323.59
2023-01-03T06:48:23.671Z,101327.28
2023-01-03T06:53:32.481Z,101334.22
2023-01-03T06:58:35.825Z,101334.66
2023-01-03T07:03:38.731Z,101342.75
2023-01-03T07:08:48.111Z,101355.94
2023-01-03T07:14:00.680Z,101364.84
2023-01-03T07:19:03.872Z,101366.94
2023-01-03T07:24:09.041Z,101364.84
2023-01-03T07:29:11.913Z,101364.91
2023-01-03T07:34:14.838Z,101381.81
2023-01-03T07:39:19.049Z,101390.69
2023-01-03T07:44:21.821Z,101383.78
2023-01-03T07:49:26.091Z,101390.81
2023-01-03T07:54:30.181Z,101404.50
2023-01-03T07:59:32.981Z,101416.28
2023-01-03T08:04:35.774Z,101415.53
2023-01-03T08:09:57.718Z,101405.28
2023-01-03T08:15:00.509Z,101403.16
2023-01-03T08:20:03.279Z,101418.72
2023-01-03T08:25:08.096Z,101422.28
2023-01-03T08:30:12.000Z,101432.22
2023-01-03T08:35:16.099Z,101439.97
2023-01-03T08:40:20.509Z,101429.31
2023-01-03T08:45:23.229Z,101438.50
2023-01-03T08:50:26.482Z,101439.63
2023-01-03T08:55:30.590Z,101425.91
2023-01-03T09:00:33.341Z,101436.03
2023-01-03T09:05:36.105Z,101448.63
2023-01-03T09:10:47.635Z,101458.56
2023-01-03T09:15:50.747Z,101458.22
2023-01-03T09:20:53.504Z,101451.50
2023-01-03T09:25:57.594Z,101462.16
2023-01-03T09:31:00.345Z,101451.88
2023-01-03T09:36:03.240Z,101449.47
2023-01-03T09:41:09.959Z,101455.13
2023-01-03T09:46:17.224Z,101452.09
2023-01-03T09:51:39.775Z,101454.28
2023-01-03T09:57:01.696Z,101458.13
2023-01-03T10:02:37.011Z,101466.72
2023-01-03T10:08:00.631Z,101477.72
2023-01-03T10:13:17.813Z,101462.06
2023-01-03T10:18:34.397Z,101461.88
2023-01-03T10:23:37.208Z,101466.75
2023-01-03T10:28:44.715Z,101468.25
2023-01-03T10:33:48.391Z,101462.75
2023-01-03T10:39:03.889Z,101462.19
2023-01-03T10:44:08.022Z,101450.22
2023-01-03T10:49:27.163Z,101449.19
2023-01-03T10:54:48.345Z,101443.91
2023-01-03T10:59:52.393Z,101442.00
2023-01-03T11:05:12.271Z,101441.22
2023-01-03T11:10:18.578Z,101450.59
2023-01-03T11:15:39.080Z,101445.47
2023-01-03T11:20:47.341Z,101448.25
2023-01-03T11:25:56.083Z,101451.66
2023-01-03T11:31:03.991Z,101445.97
2023-01-03T11:36:24.039Z,101444.28
2023-01-03T11:41:41.258Z,101444.41
2023-01-03T11:46:55.577Z,101437.84
2023-01-03T11:52:07.751Z,101434.03
2023-01-03T11:57:15.931Z,101441.09
2023-01-03T12:02:40.955Z,101434.19
2023-01-03T12:07:52.615Z,101440.84
2023-01-03T12:13:07.354Z,101428.63
2023-01-03T12:18:18.303Z,101418.06
2023-01-03T12:23:30.359Z,101436.03
2023-01-03T12:28:37.646Z,101431.31
2023-01-03T12:33:46.094Z,101427.78
2023-01-03T12:38:53.453Z,101423.13
2023-01-03T12:44:00.867Z,101417.31
2023-01-03T12:49:08.726Z,101427.22
2023-01-03T12:54:21.439Z,101412.31
2023-01-03T12:59:36.844Z,101417.44
2023-01-03T13:04:43.507Z,101422.09
2023-01-03T13:09:49.673Z,101413.66
2023-01-03T13:14:54.360Z,101395.22
2023-01-03T13:20:00.325Z,101391.84
2023-01-03T13:25:29.698Z,101399.25
2023-01-03T13:30:34.181Z,101393.16
2023-01-03T13:35:53.309Z,101389.56
2023-01-03T13:46:24.874Z,101402.28
2023-01-03T13:51:50.571Z,101399.91
2023-01-03T13:57:03.952Z,101391.69
2023-01-03T14:02:49.835Z,101391.69
2023-01-03T14:08:13.883Z,101395.50
2023-01-03T14:13:38.605Z,101393.59
2023-01-03T14:18:42.604Z,101400.72
2023-01-03T14:23:59.670Z,101390.81
2023-01-03T14:29:03.818Z,101398.75
2023-01-03T14:34:07.988Z,101399.81
2023-01-03T14:39:21.792Z,101405.47
2023-01-03T14:44:24.569Z,101402.66
2023-01-03T14:49:45.334Z,101404.31
2023-01-03T14:54:51.841Z,101401.78
2023-01-03T14:59:56.109Z,101398.72
2023-01-03T15:04:59.596Z,101411.00
2023-01-03T15:10:06.755Z,101413.91
2023-01-03T15:15:18.591Z,101417.88
2023-01-03T15:20:25.190Z,101410.75
2023-01-03T15:25:35.278Z,101418.44
2023-01-03T15:30:47.385Z,101420.28
2023-01-03T15:35:51.307Z,101418.56
2023-01-03T15:40:55.671Z,101425.16
2023-01-03T15:46:04.013Z,101436.75
2023-01-03T15:51:07.359Z,101442.78
2023-01-03T15:56:17.392Z,101439.78
2023-01-03T16:01:21.164Z,101448.88
2023-01-03T16:06:24.076Z,101454.94
2023-01-03T16:11:34.244Z,101455.59
2023-01-03T16:16:39.480Z,101461.88
2023-01-03T16:21:51.564Z,101461.22
2023-01-03T16:27:14.163Z,101462.59
2023-01-03T16:32:19.756Z,101463.75
2023-01-03T16:37:22.835Z,101464.06
2023-01-03T16:42:28.405Z,101469.06
2023-01-03T16:47:33.628Z,101458.53
2023-01-03T16:52:39.397Z,101458.41
2023-01-03T16:57:46.276Z,101461.53
2023-01-03T17:02:54.425Z,101474.09
2023-01-03T17:08:03.973Z,101470.97
2023-01-03T17:13:12.889Z,101470.00
2023-01-03T17:18:19.153Z,101466.78
2023-01-03T17:23:22.405Z,101470.97
2023-01-03T17:28:26.496Z,101483.63
2023-01-03T17:33:33.970Z,101463.31
2023-01-03T17:38:37.153Z,101469.19
2023-01-03T17:43:41.177Z,101472.72
2023-01-03T17:49:01.530Z,101476.94
2023-01-03T17:54:05.336Z,101488.44
2023-01-03T17:59:12.680Z,101492.94
2023-01-03T18:04:15.534Z,101484.56
2023-01-03T18:09:19.473Z,101477.34
2023-01-03T18:14:23.727Z,101472.75
2023-01-03T18:19:26.474Z,101470.13
2023-01-03T18:24:31.083Z,101472.63
2023-01-03T18:29:35.177Z,101471.50
2023-01-03T18:34:37.936Z,101467.00
2023-01-03T18:39:40.967Z,101470.22
2023-01-03T18:44:45.875Z,101465.84
2023-01-03T18:49:48.742Z,101473.16
2023-01-03T18:54:52.117Z,101476.50
2023-01-03T18:59:58.373Z,101475.25
2023-01-03T19:05:01.154Z,101470.97
2023-01-03T19:10:05.900Z,101469.81
2023-01-03T19:15:17.959Z,101464.25
2023-01-03T19:20:26.570Z,101471.16
2023-01-03T19:25:31.292Z,101467.94
2023-01-03T19:30:38.589Z,101467.94
2023-01-03T19:35:41.387Z,101463.03
2023-01-03T19:40:45.217Z,101464.56
2023-01-03T19:45:50.057Z,101462.69
2023-01-03T19:50:53.794Z,101465.41
2023-01-03T19:55:56.587Z,101461.53
2023-01-03T20:01:01.054Z,101470.22
2023-01-03T20:06:03.758Z,101464.38
2023-01-03T20:11:06.959Z,101456.81
2023-01-03T20:16:11.844Z,101450.03
2023-01-03T20:21:22.611Z,101451.16
2023-01-03T20:26:27.711Z,101446.13
2023-01-03T20:31:32.002Z,101441.03
2023-01-03T20:36:40.096Z,101430.97
2023-01-03T20:41:42.883Z,101428.13
2023-01-03T20:46:47.143Z,101435.84
2023-01-03T20:51:49.940Z,101424.03
2023-01-03T20:56:52.666Z,101420.78
2023-01-03T21:01:57.226Z,101422.97
2023-01-03T21:07:00.352Z,101419.63
2023-01-03T21:12:04.680Z,101410.41
2023-01-03T21:17:11.596Z,101410.69
2023-01-03T21:22:19.994Z,101412.88
2023-01-03T21:27:22.728Z,101408.59
2023-01-03T21:32:26.924Z,101410.25
2023-01-03T21:37:29.800Z,101404.41
2023-01-03T21:42:50.216Z,101404.53
2023-01-03T21:47:54.297Z,101397.19
2023-01-03T21:52:57.187Z,101394.56
2023-01-03T21:58:00.386Z,101398.13
2023-01-03T22:03:21.785Z,101392.97
2023-01-03T22:08:24.583Z,101386.00
2023-01-03T22:13:27.314Z,101380.03
2023-01-03T22:18:31.585Z,101394.75
2023-01-03T22:23:35.020Z,101383.66
2023-01-03T22:28:38.856Z,101381.28
2023-01-03T22:33:43.132Z,101375.31
2023-01-03T22:38:45.952Z,101368.41
2023-01-03T22:43:48.658Z,101365.06
2023-01-03T22:48:53.187Z,101368.72
2023-01-03T22:53:56.983Z,101364.72
2023-01-03T22:58:59.756Z,101373.50
2023-01-03T23:04:06.595Z,101365.75
2023-01-03T23:09:09.571Z,101341.53
2023-01-03T23:14:14.803Z,101344.13
2023-01-03T23:19:20.524Z,101343.19
2023-01-03T23:24:25.091Z,101342.88
2023-01-03T23:29:27.973Z,101338.59
2023-01-03T23:34:36.206Z,101330.75
2023-01-03T23:39:39.747Z,101327.50
2023-01-03T23:44:42.547Z,101315.41
2023-01-03T23:49:46.764Z,101311.13
2023-01-03T23:54:53.359Z,101311.75
2023-01-03T23:59:58.976Z,101302.06
